Time;durP1;ratioP1;P1;durP2;ratioP2;P2;SDS_P1;SDS_P2;PMS_P1;PMS_P2;Temp;Humidity;BMP_temperature;BMP_pressure;BME280_temperature;BME280_humidity;BME280_pressure;Samples;Min_cycle;Max_cycle;Signal;HPM_P1;HPM_P2
2022/04/21 00:01:10;;;;;;;8.30;5.50;;;10.10;99.90;;;;;;5113186;27;20238;-79
2022/04/21 00:03:36;;;;;;;9.20;5.93;;;10.10;99.90;;;;;;5115653;27;20896;-78
2022/04/21 00:06:03;;;;;;;7.80;5.53;;;10.20;99.90;;;;;;5109934;27;20209;-79
2022/04/21 00:08:30;;;;;;;6.70;5.43;;;10.20;99.90;;;;;;5112137;27;20233;-78
2022/04/21 00:10:57;;;;;;;6.13;5.00;;;10.10;99.90;;;;;;5115115;27;20199;-76
2022/04/21 00:13:25;;;;;;;7.13;5.33;;;10.10;99.90;;;;;;5109080;27;20561;-76
2022/04/21 00:15:52;;;;;;;6.73;5.03;;;10.00;99.90;;;;;;5116280;27;20206;-78
2022/04/21 00:18:19;;;;;;;7.43;5.77;;;9.90;99.90;;;;;;5110330;27;20310;-76
2022/04/21 00:20:45;;;;;;;6.03;4.73;;;9.90;99.90;;;;;;5112169;27;20216;-76
2022/04/21 00:23:26;;;;;;;6.63;5.23;;;9.80;99.90;;;;;;5110083;27;20589;-78
2022/04/21 00:25:54;;;;;;;6.33;5.17;;;9.80;99.90;;;;;;5116932;27;20199;-78
2022/04/21 00:28:21;;;;;;;5.47;4.73;;;9.70;99.90;;;;;;5105223;28;20326;-76
2022/04/21 00:30:49;;;;;;;6.60;5.33;;;9.70;99.90;;;;;;5105845;28;20195;-77
2022/04/21 00:33:16;;;;;;;6.03;4.60;;;9.70;99.90;;;;;;5104482;28;20231;-77
2022/04/21 00:35:42;;;;;;;7.20;5.00;;;9.60;99.90;;;;;;5105692;28;20488;-77
2022/04/21 00:38:09;;;;;;;5.70;5.13;;;9.60;99.90;;;;;;5104243;28;20214;-77
2022/04/21 00:40:36;;;;;;;6.67;5.23;;;9.50;99.90;;;;;;5105225;28;20230;-77
2022/04/21 00:43:03;;;;;;;6.73;5.50;;;9.50;99.90;;;;;;5103408;28;20214;-77
2022/04/21 00:45:31;;;;;;;6.00;4.93;;;9.50;99.90;;;;;;5105141;28;20889;-76
2022/04/21 00:48:02;;;;;;;7.93;5.70;;;9.40;99.90;;;;;;5105565;28;20792;-77
2022/04/21 00:50:30;;;;;;;8.33;5.70;;;9.30;99.90;;;;;;5104494;28;20219;-76
2022/04/21 00:52:58;;;;;;;6.77;5.10;;;9.30;99.90;;;;;;5107278;28;20204;-77
2022/04/21 00:55:25;;;;;;;6.73;5.60;;;9.20;99.90;;;;;;5109288;28;20203;-77
2022/04/21 00:57:53;;;;;;;7.00;5.70;;;9.20;99.90;;;;;;5110300;28;20199;-76
2022/04/21 01:00:20;;;;;;;8.03;5.93;;;9.20;99.90;;;;;;5108761;28;21030;-77
2022/04/21 01:02:46;;;;;;;7.27;5.27;;;9.20;99.90;;;;;;5107896;28;20218;-78
2022/04/21 01:05:15;;;;;;;5.47;4.93;;;9.10;99.90;;;;;;5109319;28;20880;-79
2022/04/21 01:07:42;;;;;;;8.07;5.50;;;9.00;99.90;;;;;;5108250;28;20621;-75
2022/04/21 01:10:10;;;;;;;7.47;6.27;;;9.00;99.90;;;;;;5108892;28;20204;-77
2022/04/21 01:12:37;;;;;;;6.93;5.30;;;8.90;99.90;;;;;;5107115;27;20205;-76
2022/04/21 01:15:05;;;;;;;8.63;5.57;;;8.90;99.90;;;;;;5102459;28;20249;-78
2022/04/21 01:17:32;;;;;;;6.97;5.37;;;8.90;99.90;;;;;;5107647;28;20527;-77
2022/04/21 01:19:59;;;;;;;7.13;6.00;;;8.80;99.90;;;;;;5109764;28;20226;-76
2022/04/21 01:22:29;;;;;;;10.93;6.40;;;8.70;99.90;;;;;;5108739;28;20547;-76
2022/04/21 01:24:56;;;;;;;8.13;5.53;;;8.70;99.90;;;;;;5115530;22;20251;-77
2022/04/21 01:27:26;;;;;;;6.47;5.70;;;8.60;99.90;;;;;;5108601;28;20214;-76
2022/04/21 01:29:53;;;;;;;7.97;6.03;;;8.60;99.90;;;;;;5108771;28;20202;-77
2022/04/21 01:32:20;;;;;;;7.00;5.90;;;8.60;99.90;;;;;;5107180;28;20223;-78
2022/04/21 01:34:47;;;;;;;7.80;5.63;;;8.60;99.90;;;;;;5108446;28;20211;-78
2022/04/21 01:42:52;;;;;;;8.37;5.80;;;8.40;99.90;;;;;;5062435;28;20322;-78
2022/04/21 01:45:19;;;;;;;7.00;6.27;;;8.30;99.90;;;;;;5087081;28;20204;-78
2022/04/21 01:47:46;;;;;;;8.70;5.80;;;8.30;99.90;;;;;;5108210;28;20208;-78
2022/04/21 01:50:13;;;;;;;7.73;5.53;;;8.20;99.90;;;;;;5107830;28;20204;-77
2022/04/21 01:52:40;;;;;;;7.93;6.20;;;8.20;99.90;;;;;;5108835;28;20667;-78
2022/04/21 01:55:08;;;;;;;6.33;5.53;;;8.10;99.90;;;;;;5107172;28;20200;-77
2022/04/21 01:57:35;;;;;;;7.93;5.60;;;8.10;99.90;;;;;;5095113;28;20222;-78
2022/04/21 02:00:03;;;;;;;7.43;6.30;;;8.00;99.90;;;;;;5087472;28;20220;-79
2022/04/21 02:02:32;;;;;;;8.60;6.70;;;8.00;99.90;;;;;;5088571;28;20231;-79
2022/04/21 02:04:59;;;;;;;8.23;6.57;;;8.00;99.90;;;;;;5087475;28;20664;-78
2022/04/21 02:07:27;;;;;;;9.33;7.00;;;8.00;99.90;;;;;;5087769;28;20985;-77
2022/04/21 02:09:54;;;;;;;8.90;6.70;;;7.90;99.90;;;;;;5087968;28;20277;-77
2022/04/21 02:12:23;;;;;;;9.17;6.63;;;7.90;99.90;;;;;;5086332;28;20215;-78
2022/04/21 02:14:51;;;;;;;8.47;6.57;;;7.80;99.90;;;;;;5087555;28;20296;-78
2022/04/21 02:17:19;;;;;;;8.60;6.50;;;7.90;99.90;;;;;;5086474;28;20285;-77
2022/04/21 02:19:47;;;;;;;7.50;6.37;;;7.80;99.90;;;;;;5087069;28;20256;-79
2022/04/21 02:22:14;;;;;;;8.80;6.37;;;7.80;99.90;;;;;;5087826;28;21051;-76
2022/04/21 02:24:41;;;;;;;9.17;7.20;;;7.80;99.90;;;;;;5087114;28;20236;-77
2022/04/21 02:27:08;;;;;;;9.00;7.07;;;7.70;99.90;;;;;;5086683;28;20220;-77
2022/04/21 02:29:36;;;;;;;8.27;6.67;;;7.60;99.90;;;;;;5087183;28;20609;-78
2022/04/21 02:32:04;;;;;;;7.33;6.10;;;7.60;99.90;;;;;;5086932;28;20201;-78
2022/04/21 02:34:31;;;;;;;9.60;7.67;;;7.60;99.90;;;;;;5086561;28;20249;-77
2022/04/21 02:36:58;;;;;;;9.07;6.57;;;7.50;99.90;;;;;;5080491;28;20604;-78
2022/04/21 02:39:25;;;;;;;8.03;7.07;;;7.50;99.90;;;;;;5096350;28;20243;-78
2022/04/21 02:41:52;;;;;;;8.17;6.53;;;7.50;99.90;;;;;;5085628;28;20341;-78
2022/04/21 02:44:18;;;;;;;8.73;6.57;;;7.50;99.90;;;;;;5075984;28;20213;-76
2022/04/21 02:46:47;;;;;;;9.10;6.93;;;7.40;99.90;;;;;;5066480;28;20204;-78
2022/04/21 02:49:15;;;;;;;9.83;7.17;;;7.40;99.90;;;;;;5066166;28;20235;-78
2022/04/21 02:51:42;;;;;;;9.43;7.20;;;7.40;99.90;;;;;;5077033;28;20205;-78
2022/04/21 02:59:37;;;;;;;8.57;6.33;;;7.40;99.90;;;;;;5085596;28;20211;-78
2022/04/21 03:02:06;;;;;;;10.73;7.80;;;7.40;99.90;;;;;;5085146;28;20200;-79
2022/04/21 03:04:32;;;;;;;8.23;6.67;;;7.40;99.90;;;;;;5098844;28;20208;-78
2022/04/21 03:06:59;;;;;;;9.40;6.63;;;7.40;99.90;;;;;;5087033;28;20205;-78
2022/04/21 03:09:26;;;;;;;10.67;6.80;;;7.40;99.90;;;;;;5086767;28;20201;-78
2022/04/21 03:11:52;;;;;;;8.77;6.97;;;7.30;99.90;;;;;;5086354;28;20211;-78
2022/04/21 03:14:21;;;;;;;8.83;7.40;;;7.30;99.90;;;;;;5093826;28;20212;-77
2022/04/21 03:16:48;;;;;;;8.87;7.23;;;7.30;99.90;;;;;;5106436;28;20184;-77
2022/04/21 03:19:16;;;;;;;12.93;7.03;;;7.30;99.90;;;;;;5088966;28;20220;-78
2022/04/21 03:24:29;;;;;;;8.80;6.33;;;7.20;99.90;;;;;;5086347;28;20196;-77
2022/04/21 03:26:56;;;;;;;11.40;7.53;;;7.20;99.90;;;;;;5086446;28;20189;-78
2022/04/21 03:29:23;;;;;;;10.20;7.10;;;7.20;99.90;;;;;;5103253;28;20282;-79
2022/04/21 03:31:50;;;;;;;9.30;6.93;;;7.20;99.90;;;;;;5099894;28;20205;-78
2022/04/21 03:34:20;;;;;;;9.33;7.53;;;7.20;99.90;;;;;;5086362;28;20220;-78
2022/04/21 03:36:48;;;;;;;8.20;6.53;;;7.20;99.90;;;;;;5090008;28;20685;-78
2022/04/21 03:39:16;;;;;;;8.03;6.10;;;7.10;99.90;;;;;;5106378;28;20203;-78
2022/04/21 03:41:42;;;;;;;10.30;7.77;;;7.20;99.90;;;;;;5092600;28;20231;-79
2022/04/21 03:44:11;;;;;;;9.70;7.13;;;7.10;99.90;;;;;;5085362;28;20197;-78
2022/04/21 03:46:38;;;;;;;11.57;7.97;;;7.10;99.90;;;;;;5085928;28;20291;-78
2022/04/21 03:49:05;;;;;;;14.03;8.77;;;7.10;99.90;;;;;;5085679;28;20584;-77
2022/04/21 03:51:34;;;;;;;10.17;7.40;;;7.10;99.90;;;;;;5085355;28;20695;-77
2022/04/21 03:54:01;;;;;;;7.27;6.43;;;7.10;99.90;;;;;;5085884;28;20196;-78
2022/04/21 03:56:29;;;;;;;7.93;6.13;;;7.00;99.90;;;;;;5084891;28;20604;-78
2022/04/21 03:58:56;;;;;;;8.70;6.17;;;7.00;99.90;;;;;;5085783;28;20297;-78
2022/04/21 04:01:23;;;;;;;9.37;6.70;;;7.00;99.90;;;;;;5085535;28;20232;-78
2022/04/21 04:03:50;;;;;;;8.27;6.37;;;7.00;99.90;;;;;;5085105;28;20193;-77
2022/04/21 04:11:50;;;;;;;8.27;6.73;;;6.90;99.90;;;;;;5085256;28;20561;-77
2022/04/21 04:14:16;;;;;;;9.10;6.73;;;6.90;99.90;;;;;;5085794;28;20244;-77
2022/04/21 04:16:44;;;;;;;11.33;7.43;;;6.80;99.90;;;;;;5085768;28;20197;-77
2022/04/21 04:19:11;;;;;;;8.73;7.30;;;6.80;99.90;;;;;;5084633;28;20561;-78
2022/04/21 04:21:38;;;;;;;10.40;7.57;;;6.90;99.90;;;;;;5085277;28;20224;-77
2022/04/21 04:24:07;;;;;;;9.33;7.50;;;6.80;99.90;;;;;;5085935;28;20204;-78
2022/04/21 04:26:34;;;;;;;10.90;8.00;;;6.80;99.90;;;;;;5083690;28;20231;-77
2022/04/21 04:29:02;;;;;;;8.87;7.13;;;6.80;99.90;;;;;;5102645;28;20234;-77
2022/04/21 04:31:29;;;;;;;11.57;7.50;;;6.70;99.90;;;;;;5106464;28;20196;-79
2022/04/21 04:33:56;;;;;;;8.13;6.60;;;6.70;99.90;;;;;;5104754;28;20216;-77
2022/04/21 04:36:23;;;;;;;9.70;7.10;;;6.70;99.90;;;;;;5082587;28;20201;-77
2022/04/21 04:38:51;;;;;;;9.13;6.87;;;6.70;99.90;;;;;;5076256;28;20273;-77
2022/04/21 04:44:04;;;;;;;10.80;8.07;;;6.70;99.90;;;;;;5105498;28;20280;-77
2022/04/21 04:46:35;;;;;;;9.10;7.07;;;6.80;99.90;;;;;;5066104;28;20217;-78
2022/04/21 04:49:04;;;;;;;11.47;8.77;;;6.80;99.90;;;;;;5065163;28;20243;-79
2022/04/21 04:51:31;;;;;;;9.53;7.63;;;6.90;99.90;;;;;;5073787;28;20192;-79
2022/04/21 04:53:58;;;;;;;9.53;7.47;;;6.90;99.90;;;;;;5105252;28;20314;-79
2022/04/21 04:56:28;;;;;;;9.97;7.73;;;6.90;99.90;;;;;;5105468;28;20215;-78
2022/04/21 04:58:55;;;;;;;11.40;8.13;;;6.90;99.90;;;;;;5105238;28;20295;-79
2022/04/21 05:01:27;;;;;;;11.07;8.20;;;7.00;99.90;;;;;;5084961;28;20648;-79
2022/04/21 05:04:01;;;;;;;11.57;8.20;;;7.00;99.90;;;;;;5085053;28;20901;-79
2022/04/21 05:06:28;;;;;;;12.87;9.83;;;7.10;99.90;;;;;;5085074;28;20930;-77
2022/04/21 05:08:56;;;;;;;20.60;11.77;;;7.10;99.90;;;;;;5084550;28;20201;-80
2022/04/21 05:11:22;;;;;;;13.10;8.30;;;7.20;99.90;;;;;;5084787;28;20287;-78
2022/04/21 05:13:51;;;;;;;13.93;8.53;;;7.30;99.90;;;;;;5084678;28;20210;-78
2022/04/21 05:16:18;;;;;;;11.07;8.53;;;7.40;99.90;;;;;;5090339;28;20220;-77
2022/04/21 05:18:45;;;;;;;10.87;8.50;;;7.50;99.90;;;;;;5085091;28;20192;-78
2022/04/21 05:21:12;;;;;;;10.40;8.23;;;7.60;99.90;;;;;;5082663;28;20236;-78
2022/04/21 05:23:40;;;;;;;9.60;8.00;;;7.60;99.90;;;;;;5084838;28;20209;-79
2022/04/21 05:26:07;;;;;;;11.10;8.47;;;7.70;99.90;;;;;;5084051;28;20243;-79
2022/04/21 05:28:35;;;;;;;11.83;8.37;;;7.70;99.90;;;;;;5084322;28;20216;-79
2022/04/21 05:31:03;;;;;;;10.03;8.40;;;7.80;99.90;;;;;;5083160;28;20204;-78
2022/04/21 05:33:31;;;;;;;9.30;8.00;;;7.80;99.90;;;;;;5084269;28;20225;-79
2022/04/21 05:36:00;;;;;;;11.77;7.67;;;7.80;99.90;;;;;;5083744;28;20235;-79
2022/04/21 05:38:28;;;;;;;11.10;8.03;;;7.90;99.90;;;;;;5084437;28;20211;-79
2022/04/21 05:40:55;;;;;;;11.57;7.87;;;8.00;99.90;;;;;;5077112;28;20224;-78
2022/04/21 05:43:28;;;;;;;10.13;7.67;;;8.00;99.90;;;;;;5072109;28;20197;-79
2022/04/21 05:45:55;;;;;;;17.33;10.67;;;8.10;99.90;;;;;;5071821;28;20219;-79
2022/04/21 05:48:24;;;;;;;12.23;9.30;;;8.10;99.90;;;;;;5093621;28;20208;-78
2022/04/21 05:50:53;;;;;;;10.87;8.70;;;8.20;99.90;;;;;;5086803;28;20250;-78
2022/04/21 05:53:22;;;;;;;12.00;8.17;;;8.30;99.90;;;;;;5096488;28;20227;-79
2022/04/21 05:55:50;;;;;;;10.47;7.80;;;8.50;99.90;;;;;;5108568;28;20199;-80
2022/04/21 05:58:17;;;;;;;11.07;7.93;;;8.50;99.90;;;;;;5101166;28;20253;-79
2022/04/21 06:00:44;;;;;;;9.73;7.83;;;8.60;99.90;;;;;;5088580;28;20229;-78
2022/04/21 06:03:12;;;;;;;11.80;7.33;;;8.80;99.90;;;;;;5087990;28;20196;-80
2022/04/21 06:05:40;;;;;;;10.53;7.80;;;8.90;99.90;;;;;;5088437;28;20262;-78
2022/04/21 06:08:07;;;;;;;9.87;7.40;;;9.00;99.90;;;;;;5101392;28;20252;-79
2022/04/21 06:10:34;;;;;;;8.63;7.30;;;9.10;99.90;;;;;;5107924;28;20207;-80
2022/04/21 06:13:02;;;;;;;10.43;8.00;;;9.20;99.90;;;;;;5101927;28;20231;-80
2022/04/21 06:15:31;;;;;;;9.97;7.53;;;9.30;99.90;;;;;;5087773;28;20204;-80
2022/04/21 06:17:58;;;;;;;12.27;7.47;;;9.40;99.90;;;;;;5086945;28;20228;-80
2022/04/21 06:20:25;;;;;;;9.23;7.00;;;9.50;99.90;;;;;;5066457;28;20205;-80
2022/04/21 06:22:53;;;;;;;9.53;7.20;;;9.70;99.90;;;;;;5087423;28;20200;-79
2022/04/21 06:25:21;;;;;;;11.03;7.47;;;9.80;99.90;;;;;;5096051;28;20239;-80
2022/04/21 06:27:47;;;;;;;9.67;7.27;;;9.90;99.90;;;;;;5107972;28;21007;-80
2022/04/21 06:30:14;;;;;;;11.13;7.23;;;9.90;99.90;;;;;;5089176;28;20212;-80
2022/04/21 06:32:41;;;;;;;8.03;6.60;;;10.10;99.90;;;;;;5086614;28;20224;-79
2022/04/21 06:35:09;;;;;;;9.17;7.00;;;10.20;99.90;;;;;;5080937;28;20213;-79
2022/04/21 06:37:36;;;;;;;9.33;7.43;;;10.20;99.90;;;;;;5087082;28;20232;-79
2022/04/21 06:40:06;;;;;;;8.77;7.30;;;10.30;99.90;;;;;;5087461;28;20316;-78
2022/04/21 06:42:33;;;;;;;11.43;7.90;;;10.40;99.90;;;;;;5087906;28;20227;-82
2022/04/21 06:50:28;;;;;;;9.27;7.73;;;10.70;99.90;;;;;;5106426;28;20199;-78
2022/04/21 06:52:54;;;;;;;10.20;7.30;;;10.90;99.90;;;;;;5105977;28;20215;-78
2022/04/21 06:55:23;;;;;;;8.77;7.23;;;11.00;99.90;;;;;;5106902;28;20591;-79
2022/04/21 06:57:50;;;;;;;8.97;7.20;;;11.20;99.90;;;;;;5107938;28;20204;-79
2022/04/21 07:00:17;;;;;;;10.47;7.60;;;11.50;99.90;;;;;;5103267;28;20271;-78
2022/04/21 07:02:44;;;;;;;9.77;7.07;;;11.60;99.90;;;;;;5087417;28;20221;-79
2022/04/21 07:05:12;;;;;;;9.27;7.30;;;11.80;99.90;;;;;;5086275;28;20207;-78
2022/04/21 07:07:40;;;;;;;8.17;6.80;;;11.90;99.90;;;;;;5085664;28;20609;-79
2022/04/21 07:10:08;;;;;;;10.10;6.70;;;12.20;99.90;;;;;;5086033;28;20296;-79
2022/04/21 07:12:36;;;;;;;10.67;6.93;;;12.40;99.90;;;;;;5087221;28;20208;-79
2022/04/21 07:15:05;;;;;;;7.00;6.23;;;12.70;99.90;;;;;;5085528;28;20208;-79
2022/04/21 07:17:33;;;;;;;8.43;6.20;;;12.90;99.90;;;;;;5084746;28;20204;-79
2022/04/21 07:20:00;;;;;;;6.77;6.07;;;13.10;99.90;;;;;;5083033;28;20771;-78
2022/04/21 07:22:27;;;;;;;7.67;6.47;;;13.30;99.90;;;;;;5084703;28;20318;-79
2022/04/21 07:24:54;;;;;;;6.90;6.07;;;13.60;99.90;;;;;;5084544;28;20247;-76
2022/04/21 07:27:21;;;;;;;8.07;6.40;;;13.80;99.90;;;;;;5085357;28;20604;-78
2022/04/21 07:29:49;;;;;;;7.97;6.23;;;14.00;99.90;;;;;;5084636;28;20219;-80
2022/04/21 07:32:17;;;;;;;8.27;6.67;;;14.30;99.90;;;;;;5085034;28;20216;-79
2022/04/21 07:34:45;;;;;;;7.93;5.97;;;14.30;99.90;;;;;;5085257;28;20605;-78
2022/04/21 07:37:11;;;;;;;6.63;5.85;;;14.30;99.90;;;;;;5093920;28;20235;-80
2022/04/21 07:39:40;;;;;;;9.13;6.67;;;14.30;99.90;;;;;;5106293;28;20212;-79
2022/04/21 07:42:08;;;;;;;9.30;6.32;;;14.30;99.90;;;;;;5093458;28;20336;-78
2022/04/21 07:44:35;;;;;;;7.85;6.05;;;14.30;99.90;;;;;;5085130;28;20369;-79
2022/04/21 07:47:05;;;;;;;7.17;6.23;;;14.30;99.90;;;;;;5084881;28;20534;-78
2022/04/21 07:49:47;;;;;;;7.67;6.70;;;14.50;99.90;;;;;;5083428;28;20254;-79
2022/04/21 07:55:08;;;;;;;6.95;6.22;;;14.60;99.90;;;;;;5084865;28;20229;-79
2022/04/21 07:57:35;;;;;;;8.52;6.82;;;14.70;99.90;;;;;;5084368;28;20204;-78
2022/04/21 08:00:05;;;;;;;8.65;5.93;;;14.80;99.90;;;;;;5085295;28;20200;-79
2022/04/21 08:02:33;;;;;;;5.88;5.20;;;14.80;99.90;;;;;;5085807;28;20221;-79
2022/04/21 08:05:00;;;;;;;6.40;5.65;;;14.90;99.90;;;;;;5084791;28;20224;-79
2022/04/21 08:07:27;;;;;;;8.45;5.80;;;15.00;99.90;;;;;;5085329;28;20212;-81
2022/04/21 08:09:54;;;;;;;6.47;5.57;;;15.00;99.90;;;;;;5097925;28;20216;-78
2022/04/21 08:12:20;;;;;;;8.73;6.47;;;15.00;99.90;;;;;;5094763;28;20217;-79
2022/04/21 08:14:47;;;;;;;7.55;6.00;;;15.30;99.90;;;;;;5084724;28;20220;-79
2022/04/21 08:17:14;;;;;;;10.40;7.50;;;15.50;99.90;;;;;;5101792;28;20226;-79
2022/04/21 08:19:42;;;;;;;8.65;6.95;;;15.50;99.90;;;;;;5105173;28;20811;-81
2022/04/21 08:22:09;;;;;;;7.97;6.65;;;15.50;99.90;;;;;;5103496;28;20309;-80
2022/04/21 08:32:49;;;;;;;6.85;5.85;;;15.90;99.90;;;;;;5104158;28;20218;-78
2022/04/21 08:35:17;;;;;;;9.55;5.80;;;16.10;99.90;;;;;;5088233;28;20201;-77
2022/04/21 08:37:45;;;;;;;7.20;5.35;;;16.20;99.90;;;;;;5091452;28;20196;-78
2022/04/21 08:40:12;;;;;;;9.10;5.30;;;16.50;99.90;;;;;;5084293;28;20199;-77
2022/04/21 08:42:41;;;;;;;7.25;5.35;;;16.70;99.90;;;;;;5084550;28;20223;-78
2022/04/21 08:45:10;;;;;;;6.38;4.32;;;16.90;99.90;;;;;;5087325;28;20217;-79
2022/04/21 08:47:39;;;;;;;5.53;4.50;;;16.70;99.90;;;;;;5088021;28;20253;-78
2022/04/21 08:50:09;;;;;;;5.30;4.78;;;16.50;99.90;;;;;;5087221;28;20216;-78
2022/04/21 08:52:38;;;;;;;6.18;5.07;;;16.70;99.90;;;;;;5084737;28;20813;-78
2022/04/21 08:55:06;;;;;;;6.28;4.85;;;16.70;99.90;;;;;;5083740;28;20311;-77
2022/04/21 08:57:35;;;;;;;6.82;5.00;;;16.90;99.90;;;;;;5076842;28;20512;-80
2022/04/21 09:00:05;;;;;;;9.45;5.60;;;17.20;99.90;;;;;;5083669;28;20201;-79
2022/04/21 09:02:39;;;;;;;5.07;4.30;;;17.10;99.90;;;;;;5066621;28;20229;-80
2022/04/21 09:05:07;;;;;;;6.55;4.15;;;17.20;99.90;;;;;;5095960;28;20578;-79
2022/04/21 09:07:45;;;;;;;5.25;4.10;;;17.40;99.90;;;;;;5084098;28;20204;-79
2022/04/21 09:10:14;;;;;;;4.72;3.70;;;17.60;99.90;;;;;;5084215;28;20216;-80
2022/04/21 09:12:43;;;;;;;6.57;4.40;;;17.70;99.90;;;;;;5086177;28;20226;-79
2022/04/21 09:15:12;;;;;;;5.25;3.58;;;17.80;99.90;;;;;;5087598;28;20200;-79
2022/04/21 09:17:41;;;;;;;3.80;3.50;;;17.70;99.90;;;;;;5094241;28;20204;-78
2022/04/21 09:20:09;;;;;;;3.65;3.30;;;17.40;99.90;;;;;;5108079;28;20207;-80
2022/04/21 09:22:36;;;;;;;7.72;3.60;;;17.10;99.90;;;;;;5109307;28;20216;-78
2022/04/21 09:25:04;;;;;;;4.53;3.63;;;17.00;99.90;;;;;;5106710;28;20235;-78
2022/04/21 09:27:39;;;;;;;3.95;3.17;;;16.80;99.90;;;;;;5067911;28;20226;-80
2022/04/21 09:30:10;;;;;;;3.90;3.15;;;16.90;99.90;;;;;;5067934;28;20197;-80
2022/04/21 09:32:37;;;;;;;5.85;4.32;;;16.90;99.90;;;;;;5097482;28;20228;-80
2022/04/21 09:35:05;;;;;;;5.50;3.45;;;16.60;99.90;;;;;;5108220;28;20608;-79
2022/04/21 09:37:33;;;;;;;4.47;3.67;;;16.90;99.90;;;;;;5105465;28;20204;-78
2022/04/21 09:40:03;;;;;;;4.35;3.72;;;17.00;99.90;;;;;;5087998;28;20866;-79
2022/04/21 09:42:31;;;;;;;4.63;3.28;;;17.10;99.90;;;;;;5107009;28;20231;-78
2022/04/21 09:47:50;;;;;;;7.25;3.80;;;17.00;99.90;;;;;;5108431;28;20199;-78
2022/04/21 09:50:16;;;;;;;3.30;3.00;;;16.80;99.90;;;;;;5089662;28;20254;-78
2022/04/21 09:52:51;;;;;;;6.65;3.17;;;16.60;99.90;;;;;;5088061;28;20204;-79
2022/04/21 09:55:23;;;;;;;4.10;3.38;;;16.90;99.90;;;;;;5086925;28;20295;-79
2022/04/21 09:57:53;;;;;;;3.45;3.05;;;17.30;99.90;;;;;;5087698;28;20211;-79
2022/04/21 10:00:25;;;;;;;5.40;3.90;;;17.50;99.90;;;;;;5088405;28;20208;-79
2022/04/21 10:02:53;;;;;;;4.13;3.10;;;17.60;99.90;;;;;;5100847;28;20296;-78
2022/04/21 10:05:20;;;;;;;4.80;3.08;;;17.80;99.90;;;;;;5108391;28;20918;-79
2022/04/21 10:07:47;;;;;;;5.78;3.00;;;17.90;99.90;;;;;;5103795;28;20885;-78
2022/04/21 10:10:13;;;;;;;4.47;3.38;;;17.90;99.90;;;;;;5075036;28;20215;-78
2022/04/21 10:12:42;;;;;;;4.95;3.72;;;17.90;99.90;;;;;;5084814;28;20197;-78
2022/04/21 10:15:11;;;;;;;7.20;3.60;;;17.90;99.90;;;;;;5086859;28;20219;-78
2022/04/21 10:17:39;;;;;;;4.93;3.78;;;17.70;99.90;;;;;;5073463;28;20352;-79
2022/04/21 10:20:08;;;;;;;4.25;3.45;;;17.60;99.90;;;;;;5067192;28;20209;-79
2022/04/21 10:22:35;;;;;;;4.75;3.53;;;17.50;99.90;;;;;;5090121;28;20215;-78
2022/04/21 10:25:06;;;;;;;5.63;3.75;;;17.30;99.90;;;;;;5106588;28;20239;-77
2022/04/21 10:27:42;;;;;;;4.35;3.50;;;17.70;99.90;;;;;;5108139;28;20911;-78
2022/04/21 10:30:21;;;;;;;8.50;3.70;;;17.80;99.90;;;;;;5107865;28;20194;-79
2022/04/21 10:32:49;;;;;;;4.63;3.55;;;18.10;99.90;;;;;;5091134;28;20256;-78
2022/04/21 10:35:21;;;;;;;4.10;3.55;;;18.50;99.90;;;;;;5091744;28;20318;-78
2022/04/21 10:37:48;;;;;;;4.20;3.80;;;18.10;99.90;;;;;;5107489;28;20199;-77
2022/04/21 10:40:21;;;;;;;6.13;3.63;;;18.10;99.90;;;;;;5107585;28;20681;-78
2022/04/21 10:42:59;;;;;;;5.32;3.55;;;17.80;99.90;;;;;;5094023;28;20258;-79
2022/04/21 10:45:30;;;;;;;5.13;3.38;;;17.50;99.90;;;;;;5097014;28;20203;-78
2022/04/21 10:48:08;;;;;;;4.43;3.83;;;17.40;99.90;;;;;;5106621;28;20207;-80
2022/04/21 10:50:36;;;;;;;4.43;3.28;;;17.30;99.90;;;;;;5066883;28;20193;-80
2022/04/21 10:58:54;;;;;;;3.50;3.20;;;17.50;99.90;;;;;;5087820;28;20621;-80
2022/04/21 11:01:34;;;;;;;4.63;3.33;;;17.60;99.90;;;;;;5086940;28;20193;-79
2022/04/21 11:04:23;;;;;;;5.60;3.33;;;17.80;99.90;;;;;;5086462;28;20256;-78
2022/04/21 11:06:52;;;;;;;3.55;3.25;;;17.90;99.90;;;;;;5086380;28;20262;-78
2022/04/21 11:09:50;;;;;;;4.80;3.10;;;18.00;99.90;;;;;;5087223;28;20238;-79
2022/04/21 11:12:38;;;;;;;4.68;2.95;;;17.90;99.90;;;;;;5070635;28;20213;-79
2022/04/21 11:15:33;;;;;;;3.85;2.95;;;17.80;99.90;;;;;;5085520;28;20224;-79
2022/04/21 11:18:02;;;;;;;5.15;3.78;;;17.90;99.90;;;;;;5086436;28;20318;-80
2022/04/21 11:20:29;;;;;;;4.03;3.10;;;17.90;99.90;;;;;;5086073;28;20207;-79
2022/04/21 11:22:56;;;;;;;3.90;3.45;;;18.20;99.90;;;;;;5085789;28;20251;-79
2022/04/21 11:25:23;;;;;;;7.93;3.35;;;18.20;99.90;;;;;;5086206;28;20335;-79
2022/04/21 11:27:52;;;;;;;4.90;3.60;;;18.00;99.90;;;;;;5084874;28;20204;-79
2022/04/21 11:30:20;;;;;;;3.40;3.10;;;18.00;99.90;;;;;;5086123;28;20196;-79
2022/04/21 11:32:52;;;;;;;6.15;3.60;;;18.20;99.90;;;;;;5085361;28;20224;-79
2022/04/21 11:35:22;;;;;;;4.10;3.70;;;18.60;99.90;;;;;;5085063;28;20242;-79
2022/04/21 11:37:58;;;;;;;4.07;3.13;;;18.90;99.90;;;;;;5085224;28;20236;-80
2022/04/21 11:40:31;;;;;;;5.15;3.63;;;18.80;99.90;;;;;;5084762;28;20203;-79
2022/04/21 11:43:00;;;;;;;3.88;3.13;;;18.70;99.90;;;;;;5085590;28;20224;-79
2022/04/21 11:45:28;;;;;;;4.32;3.10;;;18.80;99.90;;;;;;5086430;28;20211;-80
2022/04/21 11:47:55;;;;;;;3.25;2.95;;;18.90;99.90;;;;;;5085672;28;20193;-80
2022/04/21 11:50:28;;;;;;;5.82;3.78;;;18.70;99.90;;;;;;5085887;28;20216;-80
2022/04/21 11:52:57;;;;;;;5.18;3.13;;;18.30;99.90;;;;;;5086992;28;20296;-77
2022/04/21 11:55:29;;;;;;;4.32;3.22;;;18.20;99.90;;;;;;5086542;28;20219;-78
2022/04/21 11:57:56;;;;;;;4.38;3.08;;;18.20;99.90;;;;;;5087143;28;20315;-78
2022/04/21 12:08:47;;;;;;;4.07;3.30;;;18.70;99.90;;;;;;5085826;28;20192;-79
2022/04/21 12:11:16;;;;;;;5.05;3.42;;;18.80;99.90;;;;;;5085020;28;20200;-78
2022/04/21 12:13:44;;;;;;;4.32;3.28;;;18.60;99.90;;;;;;5085324;28;20208;-78
2022/04/21 12:16:38;;;;;;;5.28;2.92;;;18.70;99.90;;;;;;5085186;28;20882;-79
2022/04/21 12:19:19;;;;;;;2.90;2.70;;;18.60;99.90;;;;;;5083408;28;20193;-79
2022/04/21 12:21:58;;;;;;;7.10;2.90;;;18.90;99.90;;;;;;5074798;28;20846;-79
2022/04/21 12:24:30;;;;;;;4.00;3.53;;;19.40;99.90;;;;;;5076287;28;20223;-76
2022/04/21 12:26:57;;;;;;;5.57;2.75;;;19.20;99.90;;;;;;5073702;28;20316;-80
2022/04/21 12:29:24;;;;;;;3.45;3.13;;;19.20;99.90;;;;;;5078773;28;20617;-78
2022/04/21 12:31:53;;;;;;;4.35;3.15;;;19.10;99.90;;;;;;5080456;28;22130;-78
2022/04/21 12:34:26;;;;;;;3.33;3.00;;;18.70;99.90;;;;;;5087213;28;20220;-77
2022/04/21 12:36:56;;;;;;;3.78;2.70;;;18.70;99.90;;;;;;5086282;28;20494;-79
2022/04/21 12:39:24;;;;;;;3.22;2.65;;;18.50;99.90;;;;;;5081090;28;20420;-78
2022/04/21 12:41:52;;;;;;;3.45;2.65;;;18.60;99.90;;;;;;5089542;28;20204;-79
2022/04/21 12:44:23;;;;;;;5.30;2.80;;;18.50;99.90;;;;;;5088181;28;20308;-78
2022/04/21 12:47:05;;;;;;;5.22;2.70;;;18.70;99.90;;;;;;5093228;28;20258;-78
2022/04/21 12:49:55;;;;;;;2.95;2.55;;;18.90;99.90;;;;;;5091312;28;20211;-79
2022/04/21 12:52:43;;;;;;;3.25;2.90;;;19.10;99.90;;;;;;5086130;28;20217;-79
2022/04/21 12:55:12;;;;;;;5.35;2.60;;;19.00;99.90;;;;;;5086920;28;20199;-78
2022/04/21 12:57:40;;;;;;;3.92;3.00;;;19.10;99.90;;;;;;5085014;28;20703;-78
2022/04/21 13:00:09;;;;;;;2.83;2.40;;;18.90;99.90;;;;;;5078717;28;20209;-78
2022/04/21 13:02:36;;;;;;;6.20;3.42;;;19.10;99.90;;;;;;5079783;28;20208;-79
2022/04/21 13:05:03;;;;;;;5.07;3.00;;;19.10;99.90;;;;;;5073313;28;20209;-78
2022/04/21 13:07:30;;;;;;;3.15;2.65;;;19.00;99.90;;;;;;5068972;28;20201;-77
2022/04/21 13:09:59;;;;;;;7.07;2.97;;;18.90;99.90;;;;;;5068692;28;20913;-78
2022/04/21 13:12:25;;;;;;;4.38;2.78;;;19.30;99.90;;;;;;5067778;28;20862;-76
2022/04/21 13:14:52;;;;;;;3.22;2.92;;;19.70;99.90;;;;;;5078333;28;20208;-77
2022/04/21 13:17:19;;;;;;;4.00;2.70;;;19.60;99.90;;;;;;5088038;28;20208;-77
2022/04/21 13:19:46;;;;;;;5.10;2.92;;;19.50;99.90;;;;;;5088316;28;20206;-76
2022/04/21 13:22:11;;;;;;;3.92;2.90;;;19.60;99.90;;;;;;5088182;28;20204;-78
2022/04/21 13:24:38;;;;;;;2.67;2.40;;;19.60;99.90;;;;;;5089249;28;20782;-80
2022/04/21 13:27:06;;;;;;;3.75;2.30;;;19.50;99.90;;;;;;5089084;28;20211;-79
2022/04/21 13:29:34;;;;;;;6.65;2.90;;;19.40;99.90;;;;;;5088334;28;20518;-78
2022/04/21 13:34:45;;;;;;;3.70;2.80;;;19.00;99.90;;;;;;5087604;28;20191;-78
2022/04/21 13:37:13;;;;;;;3.13;2.63;;;19.00;99.90;;;;;;5079146;28;20214;-78
2022/04/21 13:39:40;;;;;;;3.38;2.50;;;19.00;99.90;;;;;;5085204;28;20205;-80
2022/04/21 13:42:09;;;;;;;3.90;2.60;;;19.10;99.90;;;;;;5067469;28;20217;-80
2022/04/21 13:44:36;;;;;;;4.57;2.28;;;19.00;99.90;;;;;;5073493;28;20236;-81
2022/04/21 13:47:05;;;;;;;6.03;2.42;;;19.10;99.90;;;;;;5067024;28;20205;-77
2022/04/21 13:49:32;;;;;;;3.05;2.58;;;19.30;99.90;;;;;;5091017;28;20262;-79
2022/04/21 13:51:59;;;;;;;3.22;2.72;;;19.40;99.90;;;;;;5107662;28;20208;-79
2022/04/21 13:54:26;;;;;;;3.92;2.50;;;19.40;99.90;;;;;;5106992;28;20195;-79
2022/04/21 13:56:53;;;;;;;4.55;2.47;;;19.50;99.90;;;;;;5106573;28;20212;-79